Time;durP1;ratioP1;P1;durP2;ratioP2;P2;SDS_P1;SDS_P2;PMS_P1;PMS_P2;Temp;Humidity;BMP_temperature;BMP_pressure;BME280_temperature;BME280_humidity;BME280_pressure;Samples;Min_cycle;Max_cycle;Signal;HPM_P1;HPM_P2
2023/07/31 00:01:28;;;;;;;0.00;0.00;;;17.20;90.00;;;;;;5011205;28;20148;-72
2023/07/31 00:03:53;;;;;;;0.00;0.00;;;17.10;90.30;;;;;;5010470;28;20041;-73
2023/07/31 00:06:19;;;;;;;0.00;0.00;;;17.10;90.20;;;;;;5010148;28;20045;-72
2023/07/31 00:08:44;;;;;;;0.10;0.10;;;17.10;90.50;;;;;;4992215;28;20494;-72
2023/07/31 00:11:10;;;;;;;0.00;0.00;;;17.10;90.80;;;;;;5010458;28;20070;-72
2023/07/31 00:13:36;;;;;;;0.00;0.00;;;17.10;91.20;;;;;;5010114;28;20042;-72
2023/07/31 00:16:01;;;;;;;0.00;0.00;;;17.10;91.30;;;;;;5010318;28;20034;-72
2023/07/31 00:18:27;;;;;;;0.00;0.00;;;17.10;91.30;;;;;;5010431;28;20030;-72
2023/07/31 00:20:52;;;;;;;0.00;0.00;;;17.10;91.20;;;;;;5009736;28;20064;-72
2023/07/31 00:23:18;;;;;;;0.00;0.00;;;17.10;91.20;;;;;;5009824;28;20045;-72
2023/07/31 00:25:43;;;;;;;0.00;0.00;;;17.10;91.50;;;;;;5010047;28;20050;-72
2023/07/31 00:28:09;;;;;;;0.00;0.00;;;17.10;91.50;;;;;;4992294;28;20120;-72
2023/07/31 00:30:35;;;;;;;0.00;0.00;;;17.10;91.60;;;;;;5009871;28;20064;-72
2023/07/31 00:33:00;;;;;;;0.00;0.00;;;17.00;91.50;;;;;;5008832;28;20099;-72
2023/07/31 00:35:26;;;;;;;0.00;0.00;;;17.10;91.70;;;;;;5009807;28;20050;-72
2023/07/31 00:37:51;;;;;;;0.10;0.10;;;17.00;91.70;;;;;;5009750;28;20048;-72
2023/07/31 00:40:17;;;;;;;0.00;0.00;;;17.00;91.70;;;;;;5008707;28;20053;-72
2023/07/31 00:42:42;;;;;;;0.00;0.00;;;17.00;91.70;;;;;;5009884;28;20038;-72
2023/07/31 00:45:08;;;;;;;0.00;0.00;;;17.00;91.70;;;;;;5009653;28;20049;-72
2023/07/31 00:47:34;;;;;;;0.00;0.00;;;17.00;91.50;;;;;;5009698;28;20038;-72
2023/07/31 00:49:59;;;;;;;0.10;0.10;;;17.00;91.60;;;;;;5009999;28;20081;-72
2023/07/31 00:52:25;;;;;;;1.05;1.05;;;17.00;91.60;;;;;;5009694;28;20061;-72
2023/07/31 00:54:51;;;;;;;0.08;0.08;;;17.00;91.80;;;;;;5009239;28;20046;-72
2023/07/31 00:57:16;;;;;;;0.00;0.00;;;17.00;91.90;;;;;;5009147;28;20065;-72
2023/07/31 00:59:42;;;;;;;0.00;0.00;;;17.00;91.90;;;;;;5009309;28;20049;-72
2023/07/31 01:02:08;;;;;;;0.00;0.00;;;17.00;92.00;;;;;;5009688;28;20041;-72
2023/07/31 01:04:34;;;;;;;0.00;0.00;;;17.00;91.90;;;;;;5009129;28;20068;-72
2023/07/31 01:07:35;;;;;;;0.00;0.00;;;17.00;92.00;;;;;;5009521;28;20037;-72
2023/07/31 01:10:10;;;;;;;0.00;0.00;;;17.00;91.90;;;;;;5007945;28;20042;-72
2023/07/31 01:12:37;;;;;;;0.00;0.00;;;17.00;91.80;;;;;;5008456;28;20073;-72
2023/07/31 01:15:10;;;;;;;0.00;0.00;;;17.00;91.80;;;;;;5009217;28;20041;-72
2023/07/31 01:17:37;;;;;;;0.00;0.00;;;17.00;91.80;;;;;;5009490;28;20049;-72
2023/07/31 01:20:09;;;;;;;0.00;0.00;;;17.00;91.90;;;;;;5009090;28;20402;-72
2023/07/31 01:23:30;;;;;;;0.00;0.00;;;16.90;91.90;;;;;;5007133;28;20050;-72
2023/07/31 01:26:17;;;;;;;0.00;0.00;;;16.80;91.80;;;;;;5001339;28;20050;-72
2023/07/31 01:29:02;;;;;;;0.00;0.00;;;16.80;91.70;;;;;;5008506;28;20083;-72
2023/07/31 01:31:30;;;;;;;0.08;0.08;;;16.80;91.60;;;;;;5008119;28;20054;-72
2023/07/31 01:33:59;;;;;;;0.00;0.00;;;16.80;91.70;;;;;;5007669;28;20045;-72
2023/07/31 01:36:25;;;;;;;0.00;0.00;;;16.80;91.70;;;;;;5009174;28;20053;-72
2023/07/31 01:38:51;;;;;;;0.00;0.00;;;16.80;91.70;;;;;;5009333;28;20049;-72
2023/07/31 01:41:18;;;;;;;0.00;0.00;;;16.80;91.70;;;;;;5008509;28;20088;-72
2023/07/31 01:43:44;;;;;;;0.00;0.00;;;16.80;91.70;;;;;;5009226;28;20505;-72
2023/07/31 01:46:09;;;;;;;0.00;0.00;;;16.80;91.70;;;;;;5004032;28;20561;-72
2023/07/31 01:48:36;;;;;;;0.00;0.00;;;16.80;91.60;;;;;;4989517;28;20050;-72
2023/07/31 01:51:02;;;;;;;0.00;0.00;;;16.80;91.60;;;;;;4996770;28;20095;-72
2023/07/31 01:53:30;;;;;;;0.00;0.00;;;16.90;91.60;;;;;;5008942;28;20049;-72
2023/07/31 01:55:55;;;;;;;0.00;0.00;;;16.90;91.60;;;;;;5008412;28;20042;-72
2023/07/31 01:58:21;;;;;;;0.00;0.00;;;16.90;91.40;;;;;;5008846;28;20052;-72
2023/07/31 02:00:46;;;;;;;0.00;0.00;;;16.90;91.40;;;;;;5008969;28;20045;-72
2023/07/31 02:03:12;;;;;;;0.00;0.00;;;16.90;91.30;;;;;;5008940;28;20056;-72
2023/07/31 02:05:47;;;;;;;0.00;0.00;;;16.90;91.30;;;;;;5008294;28;20038;-72
2023/07/31 02:08:13;;;;;;;0.00;0.00;;;16.90;91.10;;;;;;5008772;28;20190;-72
2023/07/31 02:10:39;;;;;;;0.00;0.00;;;16.90;91.10;;;;;;5008569;28;20085;-72
2023/07/31 02:13:04;;;;;;;0.00;0.00;;;16.90;90.90;;;;;;5008562;28;20674;-72
2023/07/31 02:15:30;;;;;;;0.08;0.08;;;16.90;91.00;;;;;;5007620;28;20505;-71
2023/07/31 02:17:56;;;;;;;0.00;0.00;;;16.90;91.10;;;;;;5008082;28;20410;-72
2023/07/31 02:20:21;;;;;;;0.00;0.00;;;16.80;91.00;;;;;;5008725;28;20510;-72
2023/07/31 02:22:47;;;;;;;0.00;0.00;;;16.90;91.00;;;;;;5008848;28;20565;-72
2023/07/31 02:25:13;;;;;;;0.00;0.00;;;16.80;90.90;;;;;;5008893;28;20057;-72
2023/07/31 02:27:39;;;;;;;0.00;0.00;;;16.80;91.00;;;;;;5008578;28;20049;-71
2023/07/31 02:30:05;;;;;;;0.00;0.00;;;16.90;91.00;;;;;;5008451;28;20057;-72
2023/07/31 02:32:30;;;;;;;0.00;0.00;;;16.90;90.90;;;;;;5008500;28;20050;-71
2023/07/31 02:34:56;;;;;;;0.00;0.00;;;16.80;90.90;;;;;;4990129;28;20042;-71
2023/07/31 02:37:21;;;;;;;0.00;0.00;;;16.90;90.80;;;;;;5007350;28;20046;-72
2023/07/31 02:39:47;;;;;;;0.00;0.00;;;16.80;90.90;;;;;;5011936;28;20049;-72
2023/07/31 02:42:14;;;;;;;0.00;0.00;;;16.90;90.90;;;;;;5012338;28;20847;-72
2023/07/31 02:44:39;;;;;;;0.00;0.00;;;16.80;91.10;;;;;;5012417;28;20144;-72
2023/07/31 02:47:05;;;;;;;0.00;0.00;;;16.80;91.20;;;;;;5011584;28;20133;-72
2023/07/31 02:49:30;;;;;;;0.00;0.00;;;16.70;91.10;;;;;;5012268;28;20042;-72
2023/07/31 02:51:56;;;;;;;0.00;0.00;;;16.60;91.20;;;;;;5010459;28;20100;-72
2023/07/31 02:54:21;;;;;;;0.00;0.00;;;16.60;91.20;;;;;;5010673;28;20053;-72
2023/07/31 02:56:47;;;;;;;0.00;0.00;;;16.60;91.20;;;;;;5011197;28;20049;-71
2023/07/31 02:59:13;;;;;;;0.00;0.00;;;16.50;91.40;;;;;;5011517;28;20123;-72
2023/07/31 03:01:39;;;;;;;0.00;0.00;;;16.50;91.30;;;;;;5011597;28;20076;-71
2023/07/31 03:04:04;;;;;;;0.00;0.00;;;16.40;91.40;;;;;;5012273;28;20058;-71
2023/07/31 03:06:30;;;;;;;0.00;0.00;;;16.40;91.40;;;;;;5011488;28;20042;-71
2023/07/31 03:08:55;;;;;;;0.00;0.00;;;16.30;91.50;;;;;;5011780;28;20038;-71
2023/07/31 03:11:21;;;;;;;0.00;0.00;;;16.30;91.60;;;;;;5011390;28;20498;-71
2023/07/31 03:13:47;;;;;;;0.00;0.00;;;16.40;91.70;;;;;;5011922;28;20053;-71
2023/07/31 03:16:12;;;;;;;0.00;0.00;;;16.30;91.90;;;;;;5011739;28;20042;-71
2023/07/31 03:18:38;;;;;;;0.00;0.00;;;16.40;92.00;;;;;;5011023;28;20050;-71
2023/07/31 03:21:04;;;;;;;0.00;0.00;;;16.40;92.10;;;;;;5010947;28;20533;-71
2023/07/31 03:23:30;;;;;;;0.00;0.00;;;16.40;92.10;;;;;;5011314;28;20060;-71
2023/07/31 03:26:00;;;;;;;0.00;0.00;;;16.40;92.00;;;;;;5011282;28;20053;-71
2023/07/31 03:28:26;;;;;;;0.00;0.00;;;16.50;92.00;;;;;;5010176;28;20128;-72
2023/07/31 03:30:52;;;;;;;0.00;0.00;;;16.50;92.00;;;;;;5001337;28;20208;-72
2023/07/31 03:33:18;;;;;;;0.00;0.00;;;16.40;92.00;;;;;;5003915;28;20426;-72
2023/07/31 03:35:43;;;;;;;0.00;0.00;;;16.50;92.20;;;;;;5011203;28;20050;-71
2023/07/31 03:38:09;;;;;;;0.00;0.00;;;16.40;92.20;;;;;;5011179;28;20073;-71
2023/07/31 03:40:34;;;;;;;0.00;0.00;;;16.40;92.30;;;;;;5010985;28;20096;-71
2023/07/31 03:43:00;;;;;;;0.00;0.00;;;16.50;92.20;;;;;;5010456;28;20054;-72
2023/07/31 03:45:26;;;;;;;0.00;0.00;;;16.50;92.40;;;;;;5009594;28;20046;-72
2023/07/31 03:47:51;;;;;;;0.00;0.00;;;16.50;92.40;;;;;;5010391;28;20054;-72
2023/07/31 03:50:17;;;;;;;0.00;0.00;;;16.50;92.50;;;;;;5010822;28;20050;-72
2023/07/31 03:52:42;;;;;;;0.00;0.00;;;16.50;92.50;;;;;;5010714;28;20545;-71
2023/07/31 03:55:08;;;;;;;0.00;0.00;;;16.50;92.40;;;;;;5010414;28;20046;-71
2023/07/31 03:57:34;;;;;;;0.00;0.00;;;16.50;92.40;;;;;;5010874;28;20099;-72
2023/07/31 03:59:59;;;;;;;0.00;0.00;;;16.50;92.60;;;;;;5009399;28;20044;-72
2023/07/31 04:02:26;;;;;;;0.00;0.00;;;16.50;92.60;;;;;;5009107;28;20041;-72
2023/07/31 04:04:51;;;;;;;0.00;0.00;;;16.50;92.60;;;;;;5011230;28;20042;-72
2023/07/31 04:07:17;;;;;;;0.00;0.00;;;16.50;92.60;;;;;;5009950;28;20058;-72
2023/07/31 04:09:42;;;;;;;0.00;0.00;;;16.50;92.60;;;;;;5010367;28;20100;-72
2023/07/31 04:12:08;;;;;;;0.00;0.00;;;16.50;92.70;;;;;;5010638;28;20053;-71
2023/07/31 04:14:34;;;;;;;0.00;0.00;;;16.60;92.70;;;;;;5010400;28;20057;-71
2023/07/31 04:16:59;;;;;;;0.00;0.00;;;16.50;92.70;;;;;;5010636;28;20204;-71
2023/07/31 04:19:25;;;;;;;0.00;0.00;;;16.60;92.60;;;;;;5010006;28;20128;-72
2023/07/31 04:21:50;;;;;;;0.00;0.00;;;16.50;92.80;;;;;;5010105;28;20650;-72
2023/07/31 04:24:22;;;;;;;0.20;0.20;;;16.60;92.70;;;;;;5008709;28;20049;-72
2023/07/31 04:26:47;;;;;;;0.00;0.00;;;16.60;92.80;;;;;;5009629;28;20058;-72
2023/07/31 04:29:13;;;;;;;0.00;0.00;;;16.60;92.80;;;;;;5010209;28;20042;-72
2023/07/31 04:31:38;;;;;;;0.00;0.00;;;16.60;92.80;;;;;;5009949;28;20049;-73
2023/07/31 04:34:04;;;;;;;0.00;0.00;;;16.70;92.90;;;;;;5009855;28;20072;-73
2023/07/31 04:36:29;;;;;;;0.00;0.00;;;16.60;93.10;;;;;;5010428;28;20041;-72
2023/07/31 04:38:55;;;;;;;0.10;0.10;;;16.60;92.90;;;;;;5009507;28;20046;-72
2023/07/31 04:41:21;;;;;;;0.00;0.00;;;16.60;92.90;;;;;;5009535;28;20092;-72
2023/07/31 04:43:46;;;;;;;0.00;0.00;;;16.60;92.70;;;;;;5009982;28;20041;-72
2023/07/31 04:46:12;;;;;;;0.00;0.00;;;16.50;92.80;;;;;;5009832;28;20054;-72
2023/07/31 04:48:38;;;;;;;0.00;0.00;;;16.50;93.00;;;;;;5009297;28;20042;-72
2023/07/31 04:51:03;;;;;;;0.70;0.70;;;16.50;92.90;;;;;;5007610;28;20467;-72
2023/07/31 04:53:29;;;;;;;0.00;0.00;;;16.50;93.00;;;;;;4996533;28;20797;-72
2023/07/31 04:55:54;;;;;;;0.00;0.00;;;16.50;92.90;;;;;;5009442;28;20049;-72
2023/07/31 04:58:20;;;;;;;0.00;0.00;;;16.50;92.80;;;;;;5009050;28;20103;-73
2023/07/31 05:00:45;;;;;;;0.00;0.00;;;16.50;92.90;;;;;;5008639;28;20112;-73
2023/07/31 05:03:11;;;;;;;0.00;0.00;;;16.50;93.00;;;;;;5009836;28;20045;-72
2023/07/31 05:05:37;;;;;;;0.00;0.00;;;16.60;92.90;;;;;;5009380;28;20119;-72
2023/07/31 05:08:02;;;;;;;0.00;0.00;;;16.50;92.90;;;;;;5007968;28;20049;-72
2023/07/31 05:10:28;;;;;;;0.10;0.10;;;16.50;93.10;;;;;;4987628;28;20140;-72
2023/07/31 05:12:53;;;;;;;0.00;0.00;;;16.60;93.30;;;;;;5008586;28;20046;-72
2023/07/31 05:15:19;;;;;;;0.10;0.10;;;16.60;93.20;;;;;;5008927;28;20128;-72
2023/07/31 05:17:45;;;;;;;1.10;0.85;;;16.60;93.50;;;;;;5008448;28;20046;-72
2023/07/31 05:20:11;;;;;;;0.00;0.00;;;16.60;93.70;;;;;;5008814;28;20137;-72
2023/07/31 05:22:36;;;;;;;0.00;0.00;;;16.70;93.70;;;;;;5009053;28;20069;-72
2023/07/31 05:25:02;;;;;;;0.00;0.00;;;16.70;93.60;;;;;;5009276;28;20050;-72
2023/07/31 05:27:27;;;;;;;2.03;1.65;;;16.80;93.70;;;;;;5007610;28;20045;-72
2023/07/31 05:29:53;;;;;;;0.00;0.00;;;16.80;93.80;;;;;;4984339;28;20056;-72
2023/07/31 05:32:18;;;;;;;2.28;1.48;;;16.80;93.80;;;;;;4990833;28;20046;-72
2023/07/31 05:34:44;;;;;;;0.00;0.00;;;16.80;93.60;;;;;;5000027;28;20046;-71
2023/07/31 05:37:11;;;;;;;0.00;0.00;;;16.80;93.60;;;;;;5004632;28;20034;-71
2023/07/31 05:39:36;;;;;;;0.00;0.00;;;16.90;93.70;;;;;;4998384;28;20096;-71
2023/07/31 05:42:02;;;;;;;2.35;0.45;;;16.80;93.60;;;;;;5007903;28;20053;-72
2023/07/31 05:44:27;;;;;;;0.10;0.10;;;16.90;93.60;;;;;;5008967;28;20179;-71
2023/07/31 05:46:53;;;;;;;0.35;0.35;;;16.90;93.80;;;;;;5005908;28;20195;-72
2023/07/31 05:49:18;;;;;;;0.20;0.20;;;16.90;93.70;;;;;;5008434;28;20045;-72
2023/07/31 05:51:44;;;;;;;0.10;0.10;;;17.00;93.70;;;;;;5003518;28;20037;-72
2023/07/31 05:54:09;;;;;;;0.40;0.35;;;17.00;93.70;;;;;;5007896;28;20042;-72
2023/07/31 05:56:35;;;;;;;0.22;0.22;;;16.90;93.50;;;;;;4999250;28;20058;-71
2023/07/31 05:59:00;;;;;;;0.03;0.03;;;17.00;93.80;;;;;;4989332;28;20054;-72
2023/07/31 06:01:26;;;;;;;0.00;0.00;;;17.00;93.70;;;;;;4999170;28;20045;-72
2023/07/31 06:03:52;;;;;;;0.00;0.00;;;17.00;93.80;;;;;;4995601;28;20034;-73
2023/07/31 06:06:18;;;;;;;0.00;0.00;;;17.10;93.90;;;;;;4990638;28;20042;-71
2023/07/31 06:08:43;;;;;;;0.00;0.00;;;17.00;94.00;;;;;;5002887;28;20093;-72
2023/07/31 06:11:09;;;;;;;0.05;0.05;;;17.10;94.00;;;;;;4998225;28;20049;-73
2023/07/31 06:13:35;;;;;;;1.75;1.45;;;17.10;93.90;;;;;;5008411;28;20156;-72
2023/07/31 06:16:04;;;;;;;0.40;0.40;;;17.10;93.80;;;;;;5005378;28;20039;-71
2023/07/31 06:18:31;;;;;;;0.15;0.15;;;17.10;93.70;;;;;;5010312;28;20049;-72
2023/07/31 06:20:57;;;;;;;0.00;0.00;;;17.10;93.70;;;;;;5006491;28;20061;-73
2023/07/31 06:23:22;;;;;;;0.43;0.43;;;17.10;93.50;;;;;;4995491;28;20046;-70
2023/07/31 06:25:48;;;;;;;0.00;0.00;;;17.10;93.70;;;;;;5010400;28;20145;-70
2023/07/31 06:28:14;;;;;;;0.00;0.00;;;17.20;93.70;;;;;;4999492;28;20049;-69
2023/07/31 06:30:39;;;;;;;0.00;0.00;;;17.10;93.70;;;;;;5000401;28;21460;-69
2023/07/31 06:33:05;;;;;;;0.00;0.00;;;17.20;93.60;;;;;;5007273;28;20438;-69
2023/07/31 06:35:30;;;;;;;0.00;0.00;;;17.20;93.60;;;;;;5005560;28;20518;-67
2023/07/31 06:37:56;;;;;;;0.52;0.52;;;17.20;93.60;;;;;;5011192;28;20526;-69
2023/07/31 06:40:22;;;;;;;0.00;0.00;;;17.20;93.60;;;;;;5012143;28;20407;-69
2023/07/31 06:42:48;;;;;;;0.00;0.00;;;17.30;93.60;;;;;;5012549;28;20724;-69
2023/07/31 06:45:13;;;;;;;0.00;0.00;;;17.30;93.60;;;;;;5012206;28;20042;-69
2023/07/31 06:47:39;;;;;;;0.00;0.00;;;17.20;93.50;;;;;;5012004;28;20048;-69
2023/07/31 06:50:05;;;;;;;0.00;0.00;;;17.30;93.50;;;;;;5012141;28;20133;-69
2023/07/31 06:52:31;;;;;;;0.00;0.00;;;17.30;93.50;;;;;;5012488;28;20042;-69
2023/07/31 06:55:15;;;;;;;0.00;0.00;;;17.30;93.50;;;;;;5011979;28;20523;-68
2023/07/31 06:57:41;;;;;;;0.00;0.00;;;17.40;93.50;;;;;;5011418;28;20588;-69
2023/07/31 07:00:07;;;;;;;0.03;0.03;;;17.30;93.50;;;;;;5009768;28;20050;-69
2023/07/31 07:02:33;;;;;;;0.00;0.00;;;17.40;93.60;;;;;;5004789;28;20165;-69
2023/07/31 07:04:58;;;;;;;0.10;0.10;;;17.50;93.70;;;;;;4996401;28;20410;-71
2023/07/31 07:07:24;;;;;;;0.00;0.00;;;17.40;93.60;;;;;;4992607;28;20816;-70
2023/07/31 07:09:49;;;;;;;0.17;0.13;;;17.50;93.70;;;;;;5011113;28;20534;-68
2023/07/31 07:12:15;;;;;;;0.00;0.00;;;17.50;93.60;;;;;;5010456;28;20048;-68
2023/07/31 07:14:40;;;;;;;0.00;0.00;;;17.60;93.60;;;;;;4996141;28;20725;-68
2023/07/31 07:17:06;;;;;;;0.00;0.00;;;17.60;93.60;;;;;;5008752;28;20042;-68
2023/07/31 07:19:33;;;;;;;0.03;0.03;;;17.60;93.80;;;;;;5007636;28;20050;-68
2023/07/31 07:22:02;;;;;;;0.00;0.00;;;17.60;93.70;;;;;;5006876;28;20415;-68
2023/07/31 07:24:28;;;;;;;0.00;0.00;;;17.60;93.70;;;;;;5008131;28;20065;-68
2023/07/31 07:26:54;;;;;;;0.00;0.00;;;17.60;93.60;;;;;;5008549;28;20054;-68
2023/07/31 07:29:20;;;;;;;0.00;0.00;;;17.60;93.60;;;;;;5006527;28;20038;-68
2023/07/31 07:31:49;;;;;;;0.00;0.00;;;17.60;93.50;;;;;;5006630;28;20073;-68
2023/07/31 07:34:15;;;;;;;0.00;0.00;;;17.60;93.60;;;;;;5006421;28;20081;-68
2023/07/31 07:36:40;;;;;;;0.00;0.00;;;17.60;93.60;;;;;;4989524;28;20045;-68
2023/07/31 07:39:06;;;;;;;0.00;0.00;;;17.60;93.40;;;;;;5007532;28;20121;-68
2023/07/31 07:41:31;;;;;;;0.00;0.00;;;17.60;93.40;;;;;;5005812;28;20076;-68
2023/07/31 07:43:57;;;;;;;0.00;0.00;;;17.70;93.50;;;;;;5008065;28;20041;-68
2023/07/31 07:46:23;;;;;;;0.00;0.00;;;17.70;93.30;;;;;;5007129;28;20132;-68
2023/07/31 07:48:48;;;;;;;0.00;0.00;;;17.80;93.50;;;;;;5008653;28;20048;-69
2023/07/31 07:51:14;;;;;;;0.00;0.00;;;17.70;93.50;;;;;;5008701;28;20034;-68
2023/07/31 07:53:39;;;;;;;0.00;0.00;;;17.80;93.50;;;;;;5008462;28;20042;-68
2023/07/31 07:56:05;;;;;;;0.10;0.10;;;17.70;93.50;;;;;;5008046;28;20045;-68
2023/07/31 07:58:30;;;;;;;0.00;0.00;;;17.70;93.60;;;;;;5006884;28;20046;-68
2023/07/31 08:00:56;;;;;;;0.00;0.00;;;17.80;93.70;;;;;;5006409;28;20509;-69
2023/07/31 08:03:21;;;;;;;0.00;0.00;;;17.80;93.60;;;;;;5007992;28;20498;-70
2023/07/31 08:05:47;;;;;;;0.00;0.00;;;17.90;93.70;;;;;;5007942;28;20050;-69
2023/07/31 08:08:16;;;;;;;0.00;0.00;;;17.90;93.80;;;;;;5006732;28;20038;-69
2023/07/31 08:10:42;;;;;;;0.00;0.00;;;18.00;93.80;;;;;;5002924;28;20748;-69
2023/07/31 08:13:11;;;;;;;0.00;0.00;;;18.00;93.70;;;;;;5007834;28;20076;-69
2023/07/31 08:15:37;;;;;;;0.00;0.00;;;18.00;93.90;;;;;;5006668;28;20051;-70
2023/07/31 08:18:03;;;;;;;0.00;0.00;;;18.00;93.90;;;;;;5007986;28;20414;-69
2023/07/31 08:20:28;;;;;;;0.00;0.00;;;18.00;93.90;;;;;;5006744;28;20092;-70
2023/07/31 08:22:54;;;;;;;0.00;0.00;;;18.00;93.80;;;;;;5007742;28;20054;-70
2023/07/31 08:25:20;;;;;;;0.00;0.00;;;18.00;93.70;;;;;;5006325;28;20129;-70
2023/07/31 08:27:46;;;;;;;0.00;0.00;;;18.00;93.80;;;;;;5004075;28;20124;-69
2023/07/31 08:30:12;;;;;;;0.00;0.00;;;18.10;94.00;;;;;;5006881;28;20561;-69
2023/07/31 08:32:38;;;;;;;0.00;0.00;;;18.00;94.00;;;;;;5007174;28;20062;-68
2023/07/31 08:35:04;;;;;;;0.00;0.00;;;18.00;94.20;;;;;;5006405;28;20054;-69
2023/07/31 08:37:29;;;;;;;0.00;0.00;;;18.00;94.30;;;;;;5005801;28;20052;-69
2023/07/31 08:39:55;;;;;;;0.00;0.00;;;18.10;94.30;;;;;;5004088;28;20066;-69
2023/07/31 08:42:21;;;;;;;0.00;0.00;;;18.10;94.30;;;;;;5001977;28;20564;-69
2023/07/31 08:44:49;;;;;;;0.00;0.00;;;18.10;94.40;;;;;;5003849;28;20880;-69
2023/07/31 08:47:19;;;;;;;0.00;0.00;;;18.10;94.40;;;;;;5004629;28;20052;-70
2023/07/31 08:49:47;;;;;;;0.00;0.00;;;18.10;94.20;;;;;;5005838;28;20052;-69
2023/07/31 08:52:18;;;;;;;0.00;0.00;;;18.10;94.20;;;;;;5005619;28;20053;-70
2023/07/31 08:54:43;;;;;;;0.08;0.08;;;18.10;94.10;;;;;;5004357;28;20042;-70
2023/07/31 08:57:13;;;;;;;0.00;0.00;;;18.10;94.20;;;;;;5005323;28;20045;-69
2023/07/31 08:59:40;;;;;;;0.00;0.00;;;18.10;94.20;;;;;;5004796;28;20520;-70
2023/07/31 09:02:16;;;;;;;0.00;0.00;;;18.10;94.30;;;;;;5003581;28;20056;-69
2023/07/31 09:04:45;;;;;;;0.00;0.00;;;18.20;94.30;;;;;;5004627;28;20054;-70
2023/07/31 09:07:13;;;;;;;0.00;0.00;;;18.20;94.40;;;;;;5005182;28;20414;-70
2023/07/31 09:09:39;;;;;;;0.00;0.00;;;18.20;94.20;;;;;;5003817;28;20061;-70
2023/07/31 09:12:06;;;;;;;0.00;0.00;;;18.20;94.30;;;;;;5002610;28;20049;-69
2023/07/31 09:14:33;;;;;;;0.00;0.00;;;18.30;94.30;;;;;;5001234;28;20058;-69
2023/07/31 09:16:59;;;;;;;0.10;0.10;;;18.30;94.10;;;;;;5001610;28;20041;-69
2023/07/31 09:19:38;;;;;;;0.00;0.00;;;18.40;94.20;;;;;;5001513;28;20793;-69
2023/07/31 09:22:07;;;;;;;0.00;0.00;;;18.40;94.20;;;;;;5002944;28;20053;-69
2023/07/31 09:24:35;;;;;;;0.00;0.00;;;18.30;94.10;;;;;;5002792;28;20149;-69
2023/07/31 09:27:01;;;;;;;0.00;0.00;;;18.30;94.10;;;;;;5003655;28;20042;-70
2023/07/31 09:29:29;;;;;;;0.00;0.00;;;18.30;94.10;;;;;;5003536;28;20567;-71
2023/07/31 09:31:55;;;;;;;0.00;0.00;;;18.30;94.00;;;;;;5001702;28;20045;-70
2023/07/31 09:34:37;;;;;;;0.00;0.00;;;18.30;94.20;;;;;;5002848;28;20136;-71
2023/07/31 09:37:04;;;;;;;0.00;0.00;;;18.30;94.50;;;;;;5002108;28;20045;-71
2023/07/31 09:39:31;;;;;;;0.00;0.00;;;18.50;94.60;;;;;;5002777;28;20108;-72
2023/07/31 09:41:57;;;;;;;0.00;0.00;;;18.40;94.50;;;;;;5002433;28;20517;-72
2023/07/31 09:44:38;;;;;;;0.00;0.00;;;18.50;94.40;;;;;;5002463;28;20046;-68
2023/07/31 09:47:04;;;;;;;;;;;18.40;94.40;;;;;;5008910;28;20041;-70
2023/07/31 09:49:30;;;;;;;0.00;0.00;;;18.40;94.20;;;;;;5008469;28;19925;-70
2023/07/31 09:51:56;;;;;;;0.00;0.00;;;18.40;94.10;;;;;;5007671;28;20038;-70
2023/07/31 09:54:21;;;;;;;0.00;0.00;;;18.30;94.10;;;;;;5008121;28;20041;-71
2023/07/31 09:56:48;;;;;;;0.00;0.00;;;18.40;94.20;;;;;;5007410;28;20038;-70
2023/07/31 09:59:16;;;;;;;0.00;0.00;;;18.40;94.20;;;;;;5008717;28;20045;-69
2023/07/31 10:01:43;;;;;;;0.00;0.00;;;18.40;94.50;;;;;;5010491;28;20046;-70
2023/07/31 10:04:10;;;;;;;0.00;0.00;;;18.40;94.30;;;;;;5010971;28;20521;-70
2023/07/31 10:06:37;;;;;;;0.00;0.00;;;18.50;94.40;;;;;;5011568;28;20045;-71
2023/07/31 10:09:06;;;;;;;0.00;0.00;;;18.60;94.50;;;;;;5011267;28;20057;-70
2023/07/31 10:11:56;;;;;;;0.00;0.00;;;18.60;94.40;;;;;;5010253;28;20406;-72
2023/07/31 10:14:23;;;;;;;0.00;0.00;;;18.70;94.40;;;;;;5011090;28;20046;-70
2023/07/31 10:16:50;;;;;;;0.00;0.00;;;18.80;94.40;;;;;;5010171;28;20073;-70
2023/07/31 10:19:16;;;;;;;0.00;0.00;;;18.80;94.30;;;;;;5009215;28;20096;-70
2023/07/31 10:21:43;;;;;;;0.00;0.00;;;18.90;94.10;;;;;;5011061;28;20062;-70
2023/07/31 10:24:09;;;;;;;0.00;0.00;;;18.80;93.90;;;;;;5010396;28;20088;-70
2023/07/31 10:26:43;;;;;;;0.00;0.00;;;18.80;93.80;;;;;;5011079;28;20069;-70
2023/07/31 10:29:09;;;;;;;0.00;0.00;;;18.70;93.70;;;;;;5010781;28;20053;-70
2023/07/31 10:31:38;;;;;;;0.00;0.00;;;18.70;93.70;;;;;;5009674;28;20053;-70
2023/07/31 10:34:04;;;;;;;0.00;0.00;;;18.70;93.60;;;;;;4991940;28;20057;-70
2023/07/31 10:36:29;;;;;;;0.00;0.00;;;18.70;93.70;;;;;;5007900;28;20042;-70
2023/07/31 10:38:58;;;;;;;0.00;0.00;;;18.90;93.90;;;;;;5008553;28;20086;-70
2023/07/31 10:41:39;;;;;;;0.00;0.00;;;19.00;93.80;;;;;;5008279;28;20049;-69
2023/07/31 10:44:07;;;;;;;0.00;0.00;;;19.00;93.40;;;;;;5006098;28;20038;-69
2023/07/31 10:46:32;;;;;;;2.63;1.02;;;19.00;93.50;;;;;;5007303;28;20034;-70
2023/07/31 10:49:00;;;;;;;0.00;0.00;;;19.10;93.30;;;;;;5009008;28;20052;-70
2023/07/31 10:51:34;;;;;;;0.10;0.10;;;19.10;93.30;;;;;;5008313;28;20046;-71
2023/07/31 10:54:18;;;;;;;0.00;0.00;;;19.10;93.20;;;;;;5007803;28;20717;-71
2023/07/31 10:56:49;;;;;;;0.00;0.00;;;19.10;93.00;;;;;;5008610;28;20042;-71
2023/07/31 10:59:26;;;;;;;0.20;0.20;;;19.10;92.90;;;;;;5008349;28;20042;-71
2023/07/31 11:01:58;;;;;;;0.00;0.00;;;19.00;92.50;;;;;;5007357;28;20050;-71
2023/07/31 11:04:27;;;;;;;0.00;0.00;;;18.90;92.40;;;;;;5007792;28;20547;-69
2023/07/31 11:06:57;;;;;;;0.00;0.00;;;19.00;92.60;;;;;;5009999;28;20045;-69
2023/07/31 11:09:24;;;;;;;0.00;0.00;;;18.90;92.50;;;;;;5009305;28;20069;-69
2023/07/31 11:11:52;;;;;;;0.00;0.00;;;19.00;92.50;;;;;;5007833;28;20701;-69
2023/07/31 11:14:20;;;;;;;0.00;0.00;;;18.90;92.70;;;;;;5007482;28;20041;-69
2023/07/31 11:16:50;;;;;;;0.00;0.00;;;19.00;92.70;;;;;;5008941;28;20041;-69
2023/07/31 11:19:24;;;;;;;0.00;0.00;;;19.00;92.90;;;;;;5009001;28;20089;-69
2023/07/31 11:21:56;;;;;;;0.00;0.00;;;19.00;93.00;;;;;;5007469;28;20557;-69
2023/07/31 11:24:22;;;;;;;0.00;0.00;;;19.10;92.90;;;;;;5007991;28;20135;-69
2023/07/31 11:26:54;;;;;;;0.00;0.00;;;19.00;92.70;;;;;;5008351;28;20116;-69
2023/07/31 11:29:20;;;;;;;0.00;0.00;;;18.90;92.70;;;;;;5007970;28;20132;-69
2023/07/31 11:31:46;;;;;;;0.00;0.00;;;19.00;92.80;;;;;;5007097;28;20080;-69
2023/07/31 11:34:12;;;;;;;0.15;0.15;;;19.00;92.80;;;;;;5007810;28;20705;-69
2023/07/31 11:36:37;;;;;;;0.00;0.00;;;19.00;92.90;;;;;;5006424;28;20045;-69
2023/07/31 11:39:11;;;;;;;0.88;0.65;;;19.00;92.80;;;;;;5007540;28;20046;-69
2023/07/31 11:41:40;;;;;;;0.45;0.45;;;18.90;92.70;;;;;;5007930;28;20041;-70
2023/07/31 11:44:06;;;;;;;0.00;0.00;;;18.90;92.70;;;;;;5006820;28;20414;-69
2023/07/31 11:46:32;;;;;;;0.08;0.08;;;19.00;92.70;;;;;;5006153;28;20042;-69
2023/07/31 11:49:01;;;;;;;0.03;0.03;;;19.00;92.70;;;;;;5007114;28;20126;-73
2023/07/31 11:51:29;;;;;;;0.10;0.10;;;19.10;92.00;;;;;;5005710;28;20080;-70
2023/07/31 11:53:59;;;;;;;0.00;0.00;;;19.10;92.20;;;;;;5005993;28;20453;-70
2023/07/31 11:56:31;;;;;;;0.20;0.20;;;19.20;92.30;;;;;;5005479;28;20042;-70
2023/07/31 11:58:59;;;;;;;0.00;0.00;;;19.30;92.20;;;;;;5007732;28;20048;-70
2023/07/31 12:01:25;;;;;;;0.10;0.10;;;19.30;92.20;;;;;;5006962;28;20050;-69
2023/07/31 12:03:52;;;;;;;0.00;0.00;;;19.40;91.80;;;;;;5004423;28;20141;-70
2023/07/31 12:06:21;;;;;;;0.00;0.00;;;19.40;91.30;;;;;;5006585;28;20050;-70
2023/07/31 12:08:47;;;;;;;3.13;0.63;;;19.40;91.50;;;;;;5003264;28;20101;-70
2023/07/31 12:11:17;;;;;;;0.00;0.00;;;19.30;91.40;;;;;;5004507;28;20483;-71
2023/07/31 12:13:43;;;;;;;0.13;0.13;;;19.30;91.30;;;;;;5006110;28;20054;-70
2023/07/31 12:16:08;;;;;;;0.32;0.32;;;19.40;91.40;;;;;;5006351;28;20127;-71
2023/07/31 12:18:38;;;;;;;0.00;0.00;;;19.50;91.40;;;;;;5006440;28;20050;-70
2023/07/31 12:21:06;;;;;;;0.40;0.30;;;19.40;91.20;;;;;;5003804;28;20219;-71
2023/07/31 12:23:33;;;;;;;0.00;0.00;;;19.50;91.10;;;;;;5007394;28;20088;-71
2023/07/31 12:26:13;;;;;;;0.10;0.10;;;19.50;91.20;;;;;;5007001;28;20459;-72
2023/07/31 12:28:48;;;;;;;0.00;0.00;;;19.50;91.10;;;;;;5002243;28;20117;-71
2023/07/31 12:31:19;;;;;;;1.35;0.85;;;19.50;90.90;;;;;;5004677;28;20034;-71
2023/07/31 12:33:45;;;;;;;1.55;1.45;;;19.60;90.70;;;;;;5004026;28;20111;-71
2023/07/31 12:36:13;;;;;;;0.00;0.00;;;19.60;90.60;;;;;;5005133;28;20410;-71
2023/07/31 12:38:40;;;;;;;0.00;0.00;;;19.60;90.50;;;;;;4999595;28;20057;-71
2023/07/31 12:41:08;;;;;;;0.00;0.00;;;19.60;90.10;;;;;;5004235;28;20131;-72
2023/07/31 12:43:42;;;;;;;0.00;0.00;;;19.60;89.70;;;;;;5005245;28;20532;-70
2023/07/31 12:46:10;;;;;;;0.00;0.00;;;19.60;89.70;;;;;;5004613;28;20125;-70
2023/07/31 12:48:39;;;;;;;0.00;0.00;;;19.60;89.80;;;;;;5005491;28;20064;-71